Time;durP1;ratioP1;P1;durP2;ratioP2;P2;SDS_P1;SDS_P2;PMS_P1;PMS_P2;Temp;Humidity;BMP_temperature;BMP_pressure;BME280_temperature;BME280_humidity;BME280_pressure;Samples;Min_cycle;Max_cycle;Signal;HPM_P1;HPM_P2
2022/02/12 00:00:20;;;;;;;11.38;3.05;;;;;;;0.89;100.00;103188.09;10215696;28;20054;-69
2022/02/12 00:05:18;;;;;;;9.90;3.47;;;;;;;0.85;100.00;103189.50;10218063;28;20061;-70
2022/02/12 00:10:15;;;;;;;14.38;3.67;;;;;;;0.97;100.00;103198.72;10218068;28;20058;-67
2022/02/12 00:15:12;;;;;;;16.27;3.25;;;;;;;0.99;100.00;103203.94;10216992;28;20099;-67
2022/02/12 00:20:09;;;;;;;12.10;2.33;;;;;;;0.93;100.00;103213.63;10209510;28;20050;-67
2022/02/12 00:25:06;;;;;;;15.25;2.50;;;;;;;0.99;100.00;103212.84;10220665;28;20076;-67
2022/02/12 00:30:05;;;;;;;15.35;2.75;;;;;;;0.94;100.00;103226.06;10222922;28;20054;-67
2022/02/12 00:35:02;;;;;;;16.08;3.45;;;;;;;1.07;100.00;103211.03;10217441;28;20494;-68
2022/02/12 00:39:59;;;;;;;16.27;2.65;;;;;;;0.77;100.00;103224.66;10211085;28;20075;-68
2022/02/12 00:44:57;;;;;;;16.63;3.80;;;;;;;0.95;100.00;103214.28;10216271;28;20053;-68
2022/02/12 00:49:53;;;;;;;14.35;2.92;;;;;;;0.97;100.00;103217.59;10208151;28;20045;-68
2022/02/12 00:54:50;;;;;;;10.90;3.10;;;;;;;0.87;100.00;103214.38;10211691;28;20060;-68
2022/02/12 00:59:46;;;;;;;19.95;2.83;;;;;;;0.90;100.00;103214.00;10208553;28;20061;-68
2022/02/12 01:04:43;;;;;;;21.05;3.72;;;;;;;0.95;100.00;103210.72;10215003;28;20042;-68
2022/02/12 01:09:40;;;;;;;22.27;4.05;;;;;;;0.76;100.00;103201.41;10216615;28;20130;-68
2022/02/12 01:14:37;;;;;;;15.38;2.75;;;;;;;0.83;100.00;103218.47;10221239;28;20048;-68
2022/02/12 01:19:33;;;;;;;13.15;3.63;;;;;;;0.79;100.00;103218.06;10213813;28;20070;-69
2022/02/12 01:24:30;;;;;;;13.35;3.25;;;;;;;0.64;100.00;103214.56;10212660;28;20101;-68
2022/02/12 01:29:26;;;;;;;11.60;2.80;;;;;;;0.50;100.00;103213.56;10211839;28;20519;-67
2022/02/12 01:34:23;;;;;;;13.32;2.78;;;;;;;0.35;100.00;103204.69;10213981;28;20088;-68
2022/02/12 01:39:19;;;;;;;19.45;3.08;;;;;;;0.26;100.00;103216.59;10224629;28;20071;-65
2022/02/12 01:44:16;;;;;;;21.35;4.32;;;;;;;0.15;100.00;103210.66;10209387;28;20074;-66
2022/02/12 01:49:12;;;;;;;11.52;2.72;;;;;;;0.06;100.00;103214.47;10219957;28;20530;-65
2022/02/12 01:54:09;;;;;;;15.15;3.67;;;;;;;0.02;100.00;103215.00;10220599;28;20127;-67
2022/02/12 01:59:05;;;;;;;15.35;3.45;;;;;;;-0.06;100.00;103215.94;10217253;28;20088;-67
2022/02/12 02:04:02;;;;;;;13.00;3.30;;;;;;;-0.09;100.00;103214.47;10216703;28;20045;-67
2022/02/12 02:08:59;;;;;;;16.67;4.22;;;;;;;-0.12;100.00;103214.00;10205147;28;20033;-68
2022/02/12 02:13:56;;;;;;;19.58;3.80;;;;;;;-0.18;100.00;103204.00;10217170;28;20042;-67
2022/02/12 02:18:52;;;;;;;15.90;3.38;;;;;;;-0.22;100.00;103198.97;10215132;28;20120;-68
2022/02/12 02:23:50;;;;;;;16.83;3.28;;;;;;;-0.23;100.00;103191.94;10208230;28;20077;-67
2022/02/12 02:28:47;;;;;;;14.38;3.20;;;;;;;-0.27;100.00;103190.63;10211852;28;20095;-67
2022/02/12 02:33:44;;;;;;;16.73;3.47;;;;;;;-0.23;100.00;103181.19;10207374;28;20045;-67
2022/02/12 02:38:40;;;;;;;11.98;3.10;;;;;;;-0.13;100.00;103175.50;10210650;28;20096;-68
2022/02/12 02:43:37;;;;;;;12.93;3.53;;;;;;;-0.15;100.00;103165.97;10212683;28;20046;-69
2022/02/12 02:48:34;;;;;;;13.18;3.63;;;;;;;-0.12;100.00;103166.41;10204799;28;20046;-69
2022/02/12 02:58:50;;;;;;;17.42;3.80;;;;;;;0.08;100.00;103166.69;10201179;28;20038;-68
2022/02/12 03:03:48;;;;;;;17.80;3.60;;;;;;;0.09;100.00;103162.97;10209366;28;20057;-68
2022/02/12 03:08:45;;;;;;;16.48;3.90;;;;;;;0.19;100.00;103157.31;10208408;28;20128;-68
2022/02/12 03:13:43;;;;;;;10.45;3.15;;;;;;;0.20;100.00;103142.81;10206251;28;20077;-69
2022/02/12 03:18:45;;;;;;;15.57;3.40;;;;;;;0.15;100.00;103140.69;10210128;28;20095;-66
2022/02/12 03:23:42;;;;;;;18.40;3.97;;;;;;;0.22;100.00;103145.34;10209974;28;20561;-68
2022/02/12 03:28:40;;;;;;;16.02;3.55;;;;;;;0.41;100.00;103137.47;10198321;28;20044;-68
2022/02/12 03:33:37;;;;;;;14.75;3.83;;;;;;;0.54;100.00;103136.78;10214975;28;20697;-68
2022/02/12 03:38:35;;;;;;;19.90;4.05;;;;;;;0.62;100.00;103136.66;10213475;28;20129;-66
2022/02/12 03:43:36;;;;;;;12.88;3.70;;;;;;;0.57;100.00;103132.88;10207323;28;20164;-66
2022/02/12 03:48:33;;;;;;;14.55;4.55;;;;;;;0.41;100.00;103144.72;10209773;28;20037;-66
2022/02/12 03:53:30;;;;;;;20.17;4.28;;;;;;;0.36;100.00;103139.06;10213957;28;20076;-66
2022/02/12 03:58:26;;;;;;;16.83;4.90;;;;;;;0.34;100.00;103133.03;10219583;28;20084;-68
2022/02/12 04:03:23;;;;;;;10.20;4.05;;;;;;;0.33;100.00;103128.69;10200094;28;20049;-67
2022/02/12 04:08:21;;;;;;;11.57;4.07;;;;;;;0.32;100.00;103135.09;10208317;28;20065;-66
2022/02/12 04:13:19;;;;;;;19.92;3.88;;;;;;;0.32;100.00;103135.09;10199741;28;20120;-67
2022/02/12 04:18:16;;;;;;;20.80;4.05;;;;;;;0.41;100.00;103133.94;10207336;28;20042;-67
2022/02/12 04:23:13;;;;;;;18.55;4.70;;;;;;;0.38;100.00;103120.88;10202443;28;20072;-67
2022/02/12 04:28:11;;;;;;;16.05;4.45;;;;;;;0.50;100.00;103126.59;10211492;28;20041;-68
2022/02/12 04:33:09;;;;;;;14.02;4.45;;;;;;;0.44;100.00;103106.66;10213143;28;20049;-70
2022/02/12 04:38:06;;;;;;;22.75;4.82;;;;;;;0.47;100.00;103106.28;10208242;28;20720;-70
2022/02/12 04:43:02;;;;;;;20.02;5.32;;;;;;;0.52;100.00;103109.22;10204024;28;20073;-70
2022/02/12 04:47:59;;;;;;;18.98;5.15;;;;;;;0.53;100.00;103100.09;10213226;28;20520;-69
2022/02/12 04:52:55;;;;;;;15.82;5.38;;;;;;;0.58;100.00;103102.22;10216371;28;20042;-69
2022/02/12 04:57:52;;;;;;;16.38;5.80;;;;;;;0.56;100.00;103097.06;10213297;28;20041;-68
2022/02/12 05:02:49;;;;;;;17.48;5.53;;;;;;;0.59;100.00;103083.19;10206224;28;20229;-68
2022/02/12 05:07:45;;;;;;;18.98;6.13;;;;;;;0.63;100.00;103079.09;10213176;28;20138;-68
2022/02/12 05:12:42;;;;;;;24.02;7.13;;;;;;;0.56;100.00;103078.22;10211278;28;20081;-69
2022/02/12 05:17:38;;;;;;;15.20;5.65;;;;;;;0.66;100.00;103063.59;10204923;28;20034;-70
2022/02/12 05:22:34;;;;;;;14.00;5.80;;;;;;;0.63;100.00;103068.34;10216979;28;20136;-68
2022/02/12 05:27:32;;;;;;;16.73;5.75;;;;;;;0.57;100.00;103060.19;10214067;28;20049;-69
2022/02/12 05:32:28;;;;;;;17.15;6.15;;;;;;;0.43;100.00;103063.78;10204810;28;20069;-68
2022/02/12 05:37:25;;;;;;;14.60;5.32;;;;;;;0.39;100.00;103048.00;10210293;28;20576;-69
2022/02/12 05:42:22;;;;;;;17.67;5.65;;;;;;;0.30;100.00;103045.63;10200089;28;20049;-69
2022/02/12 05:47:18;;;;;;;22.92;6.65;;;;;;;0.24;100.00;103043.72;10205613;28;20061;-69
2022/02/12 05:52:14;;;;;;;16.75;5.75;;;;;;;0.09;100.00;103036.53;10211832;28;20053;-67
2022/02/12 05:57:11;;;;;;;18.77;6.20;;;;;;;0.07;100.00;103035.91;10216459;28;20511;-68
2022/02/12 06:02:08;;;;;;;17.30;5.60;;;;;;;0.10;100.00;103037.38;10196770;28;20042;-68
2022/02/12 06:07:05;;;;;;;19.52;5.72;;;;;;;0.09;100.00;103028.44;10212752;28;20065;-68
2022/02/12 06:12:02;;;;;;;12.00;4.97;;;;;;;-0.05;100.00;103038.25;10220123;28;20660;-69
2022/02/12 06:17:00;;;;;;;13.60;5.90;;;;;;;-0.19;100.00;103038.28;10204566;28;20117;-69
2022/02/12 06:21:56;;;;;;;15.80;5.18;;;;;;;-0.12;100.00;103036.50;10201050;28;20038;-68
2022/02/12 06:26:56;;;;;;;19.77;4.85;;;;;;;-0.05;100.00;103021.28;10217512;28;20041;-68
2022/02/12 06:31:53;;;;;;;20.05;5.32;;;;;;;-0.07;100.00;103015.25;10201011;28;20121;-69
2022/02/12 06:36:49;;;;;;;14.25;4.50;;;;;;;-0.12;100.00;103023.06;10215499;28;20603;-68
2022/02/12 06:41:45;;;;;;;16.05;4.95;;;;;;;-0.22;100.00;103016.13;10202114;28;20129;-69
2022/02/12 06:46:43;;;;;;;13.55;4.63;;;;;;;-0.30;100.00;103013.56;10200919;28;20157;-69
2022/02/12 06:51:39;;;;;;;14.30;4.53;;;;;;;-0.23;100.00;103009.09;10203337;28;20069;-67
2022/02/12 06:56:36;;;;;;;15.35;4.18;;;;;;;-0.18;100.00;103010.38;10200248;28;20099;-69
2022/02/12 07:01:33;;;;;;;12.55;3.75;;;;;;;-0.18;100.00;103010.38;10207629;28;20041;-68
2022/02/12 07:06:30;;;;;;;17.35;4.22;;;;;;;-0.19;100.00;103006.03;10200842;28;20486;-69
2022/02/12 07:11:32;;;;;;;13.20;4.43;;;;;;;-0.11;100.00;103019.38;10198144;28;20046;-69
2022/02/12 07:16:28;;;;;;;17.98;4.43;;;;;;;-0.07;100.00;103007.19;10203696;28;20107;-69
2022/02/12 07:21:25;;;;;;;14.32;3.58;;;;;;;-0.07;100.00;103005.34;10202070;28;20096;-70
2022/02/12 07:26:22;;;;;;;15.50;4.00;;;;;;;-0.07;100.00;103013.41;10196102;28;20076;-70
2022/02/12 07:31:19;;;;;;;17.98;3.63;;;;;;;0.05;100.00;103005.69;10210883;28;20049;-74
2022/02/12 07:36:16;;;;;;;14.10;3.05;;;;;;;-0.02;100.00;103000.22;10195013;28;20136;-74
2022/02/12 07:41:16;;;;;;;14.00;3.45;;;;;;;0.12;100.00;102995.81;10182218;28;20357;-74
2022/02/12 07:46:13;;;;;;;12.95;3.05;;;;;;;0.19;100.00;103003.94;10175994;28;20053;-73
2022/02/12 07:51:10;;;;;;;13.50;3.00;;;;;;;0.19;100.00;102995.88;10192070;28;20149;-72
2022/02/12 07:56:06;;;;;;;12.13;2.88;;;;;;;0.26;100.00;102990.56;10176234;28;20082;-72
2022/02/12 08:01:08;;;;;;;20.17;3.22;;;;;;;0.32;100.00;102989.78;10182686;28;20049;-72
2022/02/12 08:07:27;;;;;;;13.43;2.65;;;;;;;0.37;100.00;102992.72;10183537;28;20061;-72
2022/02/12 08:11:26;;;;;;;18.65;4.47;;;;;;;0.51;100.00;102991.81;10183278;28;20053;-72
2022/02/12 08:16:22;;;;;;;18.30;3.53;;;;;;;0.54;100.00;102994.13;10193239;28;20129;-72
2022/02/12 08:21:19;;;;;;;9.88;2.67;;;;;;;0.68;100.00;102988.84;10180629;28;20050;-71
2022/02/12 08:26:16;;;;;;;12.15;2.67;;;;;;;0.72;100.00;102990.09;10183920;28;20150;-72
2022/02/12 08:31:12;;;;;;;14.57;3.65;;;;;;;0.75;100.00;102989.72;10181290;28;20076;-71
2022/02/12 08:36:09;;;;;;;14.48;3.90;;;;;;;0.79;100.00;102996.34;10180977;28;20077;-72
2022/02/12 08:41:05;;;;;;;13.45;3.35;;;;;;;0.97;100.00;102998.56;10177948;28;20451;-72
2022/02/12 08:46:02;;;;;;;8.00;2.67;;;;;;;1.07;100.00;102987.41;10176171;28;20046;-72
2022/02/12 08:50:59;;;;;;;14.07;4.00;;;;;;;1.22;100.00;102977.34;10170223;28;20104;-72
2022/02/12 08:55:55;;;;;;;15.15;3.45;;;;;;;1.32;100.00;102975.09;10175132;28;20042;-72
2022/02/12 09:00:52;;;;;;;16.45;3.70;;;;;;;1.53;100.00;102970.63;10177134;28;20901;-73
2022/02/12 09:05:49;;;;;;;13.88;3.42;;;;;;;1.72;100.00;102958.25;10177785;28;20054;-72
2022/02/12 09:10:45;;;;;;;13.15;3.22;;;;;;;1.91;100.00;102962.03;10176605;28;20133;-72
2022/02/12 09:15:42;;;;;;;16.83;3.83;;;;;;;2.08;100.00;102952.50;10170201;28;20129;-72
2022/02/12 09:20:38;;;;;;;12.65;4.18;;;;;;;2.16;100.00;102938.84;10175329;28;20129;-72
2022/02/12 09:25:37;;;;;;;16.08;3.95;;;;;;;2.25;100.00;102943.00;10177993;28;20104;-71
2022/02/12 09:30:34;;;;;;;14.55;4.05;;;;;;;2.30;100.00;102929.69;10176660;28;20042;-72
2022/02/12 09:35:31;;;;;;;13.98;3.55;;;;;;;2.48;100.00;102922.81;10170120;28;20096;-71
2022/02/12 09:40:31;;;;;;;15.38;4.00;;;;;;;2.79;100.00;102926.72;10184066;28;20508;-71
2022/02/12 09:45:57;;;;;;;14.95;3.47;;;;;;;2.90;100.00;102926.06;10186786;28;20122;-73
2022/02/12 09:50:58;;;;;;;16.50;3.50;;;;;;;3.14;100.00;102909.16;10179953;28;20562;-72
2022/02/12 09:55:55;;;;;;;13.73;4.28;;;;;;;3.01;100.00;102908.34;10201495;28;20073;-72
2022/02/12 10:00:52;;;;;;;23.60;3.33;;;;;;;2.92;100.00;102915.88;10194214;28;20050;-71
2022/02/12 10:05:55;;;;;;;13.57;3.17;;;;;;;3.16;100.00;102912.47;10193651;28;20049;-71
2022/02/12 10:10:52;;;;;;;11.65;2.75;;;;;;;3.33;100.00;102895.75;10204181;28;20116;-72
2022/02/12 10:15:51;;;;;;;13.45;3.03;;;;;;;3.74;100.00;102886.38;10181160;28;20426;-71
2022/02/12 10:20:48;;;;;;;13.05;2.70;;;;;;;3.96;100.00;102881.41;10202455;28;20092;-73
2022/02/12 10:25:47;;;;;;;11.00;3.05;;;;;;;3.97;100.00;102883.91;10220246;28;20049;-73
2022/02/12 10:30:46;;;;;;;9.43;2.20;;;;;;;4.04;100.00;102874.88;10205720;28;20041;-73
2022/02/12 10:35:56;;;;;;;13.35;2.35;;;;;;;4.06;100.00;102878.19;10213496;28;20077;-73
2022/02/12 10:41:07;;;;;;;9.88;2.35;;;;;;;4.36;100.00;102870.22;10198038;28;20120;-75
2022/02/12 10:46:04;;;;;;;12.77;2.10;;;;;;;4.61;100.00;102867.47;10187305;28;20046;-76
2022/02/12 10:51:02;;;;;;;12.40;2.15;;;;;;;4.75;100.00;102850.00;10177619;28;20105;-75
2022/02/12 10:56:01;;;;;;;8.30;1.73;;;;;;;5.04;100.00;102836.75;10195929;28;20042;-75
2022/02/12 11:00:59;;;;;;;15.43;2.35;;;;;;;4.78;94.69;102836.00;10208551;28;20574;-75
2022/02/12 11:05:56;;;;;;;10.52;1.83;;;;;;;4.65;92.65;102817.19;10198038;28;20503;-75
2022/02/12 11:10:53;;;;;;;4.43;1.13;;;;;;;4.87;89.83;102814.00;10198719;28;20068;-72
2022/02/12 11:15:50;;;;;;;8.75;1.25;;;;;;;4.84;88.47;102799.03;10200297;28;20073;-69
2022/02/12 11:20:48;;;;;;;10.68;1.90;;;;;;;5.06;85.65;102785.81;10199436;28;20108;-70
2022/02/12 11:25:47;;;;;;;8.55;1.67;;;;;;;5.16;84.59;102783.38;10196140;28;20049;-73
2022/02/12 11:30:45;;;;;;;9.57;2.13;;;;;;;5.30;79.20;102775.03;10209406;28;20502;-72
2022/02/12 11:35:41;;;;;;;9.57;1.55;;;;;;;5.59;80.92;102771.47;10194403;28;20077;-72
2022/02/12 11:40:37;;;;;;;5.78;1.40;;;;;;;5.61;76.63;102760.34;10206077;28;20038;-72
2022/02/12 11:45:42;;;;;;;7.20;1.70;;;;;;;5.70;73.30;102759.75;10190938;28;20049;-71
2022/02/12 11:50:49;;;;;;;6.97;1.65;;;;;;;5.53;72.71;102742.53;10207230;28;20061;-71
2022/02/12 11:55:46;;;;;;;10.75;1.17;;;;;;;5.62;69.53;102751.97;10222043;28;20046;-71
2022/02/12 12:00:43;;;;;;;15.52;1.88;;;;;;;5.69;72.05;102720.13;10212060;28;20054;-72
2022/02/12 12:05:39;;;;;;;10.00;1.63;;;;;;;6.01;71.47;102706.22;10222992;28;20466;-72
2022/02/12 12:10:49;;;;;;;7.82;1.55;;;;;;;5.99;67.45;102702.91;10221332;28;20057;-71
2022/02/12 12:15:50;;;;;;;9.68;1.35;;;;;;;6.23;66.93;102697.44;10209958;28;20156;-72
2022/02/12 12:20:47;;;;;;;12.43;2.00;;;;;;;6.18;64.60;102679.13;10206704;28;20085;-71
2022/02/12 12:26:06;;;;;;;13.95;2.03;;;;;;;6.72;62.67;102684.25;10200805;28;20050;-72
2022/02/12 12:31:05;;;;;;;6.05;1.30;;;;;;;6.80;62.94;102669.44;10199165;28;20111;-72
2022/02/12 12:36:13;;;;;;;9.88;1.50;;;;;;;6.77;59.12;102654.44;10209979;28;20058;-72
2022/02/12 12:41:34;;;;;;;8.57;1.40;;;;;;;6.58;56.63;102667.41;10215360;28;20107;-72
2022/02/12 12:46:31;;;;;;;8.38;1.50;;;;;;;6.22;59.75;102658.56;10212065;28;20643;-72
2022/02/12 12:51:28;;;;;;;9.40;1.73;;;;;;;6.15;63.12;102648.91;10215035;28;20092;-73
2022/02/12 12:56:25;;;;;;;8.43;1.92;;;;;;;6.09;64.13;102621.63;10184109;28;20050;-73
2022/02/12 13:01:23;;;;;;;14.88;1.92;;;;;;;6.22;68.51;102614.28;10180723;28;20054;-72
2022/02/12 13:06:19;;;;;;;10.77;1.92;;;;;;;6.22;69.37;102606.13;10202853;28;20488;-72
2022/02/12 13:11:35;;;;;;;10.25;2.05;;;;;;;6.69;67.46;102600.47;10215956;28;20103;-73
2022/02/12 13:16:40;;;;;;;8.57;2.20;;;;;;;6.87;67.53;102605.69;10192490;28;20483;-68
2022/02/12 13:21:36;;;;;;;12.90;2.60;;;;;;;7.06;65.69;102591.84;10190673;28;20057;-69
2022/02/12 13:26:37;;;;;;;12.18;3.45;;;;;;;6.80;69.13;102577.84;10209360;28;20393;-77
2022/02/12 13:31:37;;;;;;;8.80;2.10;;;;;;;6.57;67.11;102577.94;10187085;28;20042;-69
2022/02/12 13:36:49;;;;;;;7.22;2.13;;;;;;;6.75;68.32;102555.97;10207139;28;20045;-77
2022/02/12 13:41:51;;;;;;;9.85;2.00;;;;;;;6.81;66.00;102555.00;10206398;28;20050;-76
2022/02/12 13:46:52;;;;;;;11.05;3.22;;;;;;;7.03;63.49;102537.91;10192767;28;20050;-77
2022/02/12 13:51:51;;;;;;;11.85;2.40;;;;;;;6.73;63.82;102541.84;10193522;28;20129;-76
2022/02/12 13:56:52;;;;;;;12.23;2.58;;;;;;;6.84;60.67;102540.91;10196315;28;20053;-76
2022/02/12 14:01:50;;;;;;;11.00;2.72;;;;;;;7.24;60.62;102529.00;10192647;28;20128;-76
2022/02/12 14:06:47;;;;;;;14.07;2.80;;;;;;;7.67;62.04;102518.38;10193908;28;20128;-76
2022/02/12 14:11:45;;;;;;;10.48;2.20;;;;;;;8.04;59.12;102515.78;10191624;28;20209;-76
2022/02/12 14:16:44;;;;;;;10.68;2.78;;;;;;;7.92;58.28;102517.84;10203533;28;20458;-77
2022/02/12 14:21:44;;;;;;;12.55;2.50;;;;;;;7.76;57.40;102514.13;10182731;28;20061;-75
2022/02/12 14:26:41;;;;;;;13.95;2.83;;;;;;;7.88;58.12;102500.38;10184963;28;20050;-76
2022/02/12 14:31:37;;;;;;;13.50;2.72;;;;;;;7.31;58.91;102486.09;10184726;28;20099;-76
2022/02/12 14:36:34;;;;;;;13.82;3.00;;;;;;;7.96;60.86;102469.94;10189403;28;20173;-75
2022/02/12 14:41:32;;;;;;;11.95;3.30;;;;;;;8.07;58.93;102466.22;10204714;28;20495;-76
2022/02/12 14:46:29;;;;;;;12.70;2.53;;;;;;;7.68;57.56;102474.56;10222695;28;20076;-75
2022/02/12 14:51:26;;;;;;;10.27;3.42;;;;;;;7.86;56.10;102458.94;10200256;28;20092;-76
2022/02/12 14:56:23;;;;;;;12.15;3.33;;;;;;;7.68;57.87;102452.78;10177944;28;20049;-76
2022/02/12 15:01:19;;;;;;;7.43;2.10;;;;;;;7.54;56.16;102429.75;10191211;28;20092;-76
2022/02/12 15:06:17;;;;;;;8.85;1.98;;;;;;;7.13;57.73;102432.00;10188992;28;20065;-76
2022/02/12 15:11:13;;;;;;;9.70;2.47;;;;;;;6.96;57.13;102418.44;10190255;28;20054;-75
2022/02/12 15:16:10;;;;;;;9.20;2.28;;;;;;;6.75;65.10;102414.59;10181094;28;20133;-76
2022/02/12 15:21:07;;;;;;;13.88;2.38;;;;;;;6.56;67.89;102403.19;10195527;28;20054;-75
2022/02/12 15:26:07;;;;;;;14.75;3.28;;;;;;;6.05;74.27;102407.84;10181908;28;20518;-77
2022/02/12 15:31:06;;;;;;;10.90;2.50;;;;;;;5.83;76.92;102411.25;10190084;28;20045;-76
2022/02/12 15:36:04;;;;;;;10.30;2.42;;;;;;;5.80;80.62;102400.03;10191835;28;20045;-76
2022/02/12 15:41:01;;;;;;;12.52;2.60;;;;;;;5.58;82.39;102392.59;10207886;28;20103;-76
2022/02/12 15:45:58;;;;;;;8.35;2.50;;;;;;;5.47;82.17;102390.75;10199531;28;20073;-76
2022/02/12 15:50:55;;;;;;;13.50;2.78;;;;;;;5.51;86.02;102381.06;10203542;28;20099;-76
2022/02/12 15:55:53;;;;;;;7.22;1.98;;;;;;;5.33;87.81;102373.13;10195426;28;20045;-76
2022/02/12 16:00:50;;;;;;;11.38;2.50;;;;;;;5.28;89.36;102366.53;10198666;28;20092;-75
2022/02/12 16:05:47;;;;;;;11.07;2.78;;;;;;;5.21;92.62;102365.84;10206872;28;20053;-75
2022/02/12 16:10:43;;;;;;;15.20;3.03;;;;;;;5.02;96.27;102348.13;10204533;28;20058;-75
2022/02/12 16:15:41;;;;;;;8.07;2.22;;;;;;;4.79;100.00;102351.72;10205934;28;20060;-75
2022/02/12 16:20:38;;;;;;;10.35;2.22;;;;;;;4.89;99.69;102346.50;10216306;28;20581;-75
2022/02/12 16:25:34;;;;;;;9.40;2.38;;;;;;;4.78;100.00;102345.47;10210513;28;20123;-75
2022/02/12 16:30:31;;;;;;;10.07;2.30;;;;;;;4.69;100.00;102338.78;10207644;28;20081;-75
2022/02/12 16:35:31;;;;;;;14.48;3.08;;;;;;;4.51;100.00;102339.75;10202674;28;20072;-75
2022/02/12 16:40:27;;;;;;;14.88;2.88;;;;;;;4.42;100.00;102325.72;10191686;28;20053;-75
2022/02/12 16:45:24;;;;;;;10.50;2.55;;;;;;;4.38;100.00;102324.56;10172677;28;20472;-74
2022/02/12 16:50:20;;;;;;;10.80;2.90;;;;;;;4.28;100.00;102316.22;10212246;28;20092;-75
2022/02/12 16:55:17;;;;;;;15.13;3.08;;;;;;;4.03;100.00;102308.31;10190774;28;20546;-74
2022/02/12 17:00:14;;;;;;;13.68;2.72;;;;;;;4.13;100.00;102313.13;10213186;28;20049;-75
2022/02/12 17:05:12;;;;;;;11.55;2.35;;;;;;;4.07;100.00;102316.81;10203947;28;20053;-73
2022/02/12 17:10:09;;;;;;;13.75;2.47;;;;;;;3.83;100.00;102319.50;10209237;28;20092;-75
2022/02/12 17:15:08;;;;;;;13.27;2.33;;;;;;;3.98;100.00;102313.63;10191672;28;20049;-75
2022/02/12 17:20:06;;;;;;;9.90;2.90;;;;;;;3.96;100.00;102311.13;10184983;28;20053;-75
2022/02/12 17:25:04;;;;;;;10.85;2.58;;;;;;;3.93;100.00;102306.19;10181959;28;20124;-75
2022/02/12 17:30:01;;;;;;;13.57;3.38;;;;;;;3.95;100.00;102293.25;10198037;28;20057;-75
2022/02/12 17:34:58;;;;;;;13.00;3.92;;;;;;;3.88;100.00;102292.56;10192231;28;20082;-75
2022/02/12 17:39:55;;;;;;;14.50;4.53;;;;;;;3.83;100.00;102288.88;10203712;28;20111;-74
2022/02/12 17:45:10;;;;;;;12.23;3.53;;;;;;;3.65;100.00;102287.94;10210121;28;20392;-75
2022/02/12 17:50:08;;;;;;;13.38;3.80;;;;;;;3.65;100.00;102292.53;10219723;28;20041;-75
2022/02/12 17:55:09;;;;;;;13.40;3.10;;;;;;;3.64;100.00;102286.28;10178997;28;20053;-74
2022/02/12 18:00:07;;;;;;;14.35;2.97;;;;;;;3.58;100.00;102277.22;10218037;28;20042;-74
2022/02/12 18:05:05;;;;;;;12.75;2.83;;;;;;;3.53;100.00;102289.81;10192272;28;20061;-75
2022/02/12 18:10:04;;;;;;;9.48;2.08;;;;;;;3.49;100.00;102284.03;10190665;28;20095;-73
2022/02/12 18:15:01;;;;;;;12.82;2.90;;;;;;;3.37;100.00;102285.88;10177903;28;20050;-74
2022/02/12 18:19:57;;;;;;;15.60;2.85;;;;;;;3.42;100.00;102269.78;10186020;28;20101;-74
2022/02/12 18:24:54;;;;;;;14.52;3.50;;;;;;;3.36;100.00;102268.00;10199325;28;20065;-74
2022/02/12 18:29:53;;;;;;;13.05;3.25;;;;;;;3.34;100.00;102257.44;10199151;28;20055;-74
2022/02/12 18:34:49;;;;;;;10.52;3.75;;;;;;;3.32;100.00;102253.31;10205621;28;20132;-74
2022/02/12 18:39:46;;;;;;;8.30;2.85;;;;;;;3.21;100.00;102248.69;10204364;28;20475;-74
2022/02/12 18:45:03;;;;;;;10.98;2.70;;;;;;;3.14;100.00;102243.38;10204615;28;20061;-73
2022/02/12 18:50:00;;;;;;;7.97;2.17;;;;;;;2.88;100.00;102239.19;10210861;28;20073;-75
2022/02/12 18:54:56;;;;;;;11.75;2.47;;;;;;;2.98;100.00;102228.63;10204254;28;20043;-74
2022/02/12 18:59:53;;;;;;;7.80;2.35;;;;;;;2.86;100.00;102220.50;10194356;28;20050;-74
2022/02/12 19:04:50;;;;;;;13.95;2.53;;;;;;;2.80;100.00;102216.00;10201755;28;20470;-73
2022/02/12 19:09:48;;;;;;;9.60;2.50;;;;;;;2.73;100.00;102204.47;10182861;28;20047;-74
2022/02/12 19:14:44;;;;;;;9.48;2.20;;;;;;;2.63;100.00;102194.22;10195958;28;20050;-74
2022/02/12 19:19:42;;;;;;;7.90;2.25;;;;;;;2.59;100.00;102198.41;10197644;28;20050;-74
2022/02/12 19:24:39;;;;;;;12.35;3.50;;;;;;;2.60;100.00;102194.69;10197988;28;20144;-74
2022/02/12 19:29:37;;;;;;;8.95;2.33;;;;;;;2.50;100.00;102183.59;10185932;28;20092;-74
2022/02/12 19:34:33;;;;;;;11.43;2.22;;;;;;;2.42;100.00;102165.00;10192808;28;20115;-75
2022/02/12 19:39:32;;;;;;;7.63;2.40;;;;;;;2.51;100.00;102161.75;10199663;28;20049;-75
2022/02/12 19:44:28;;;;;;;15.15;3.33;;;;;;;2.44;100.00;102157.50;10184866;28;20054;-76
2022/02/12 19:49:25;;;;;;;10.18;3.22;;;;;;;2.48;100.00;102161.38;10201893;28;20076;-74
2022/02/12 19:54:21;;;;;;;13.52;3.53;;;;;;;2.41;100.00;102156.06;10188351;28;20144;-74
2022/02/12 19:59:18;;;;;;;9.80;2.80;;;;;;;2.39;100.00;102155.50;10180088;28;20074;-74
2022/02/12 20:04:16;;;;;;;12.25;3.38;;;;;;;2.35;100.00;102148.09;10189278;28;20050;-74
2022/02/12 20:09:13;;;;;;;12.93;4.28;;;;;;;2.30;100.00;102143.38;10182768;28;20144;-74
2022/02/12 20:14:10;;;;;;;12.55;4.28;;;;;;;2.22;100.00;102133.69;10175658;28;20104;-74
2022/02/12 20:19:09;;;;;;;17.40;3.97;;;;;;;2.11;100.00;102134.44;10201678;28;20045;-74
2022/02/12 20:24:05;;;;;;;8.65;3.15;;;;;;;2.15;100.00;102122.16;10187371;28;20057;-74
2022/02/12 20:29:02;;;;;;;8.52;2.95;;;;;;;1.95;100.00;102116.16;10200574;28;20073;-74
2022/02/12 20:34:00;;;;;;;9.27;3.05;;;;;;;1.91;100.00;102118.50;10191170;28;20561;-75
2022/02/12 20:38:57;;;;;;;12.00;3.72;;;;;;;1.93;100.00;102102.09;10205912;28;20188;-74
2022/02/12 20:43:53;;;;;;;7.90;2.95;;;;;;;1.96;100.00;102080.06;10168262;28;20514;-74
2022/02/12 20:48:50;;;;;;;10.18;2.60;;;;;;;1.71;100.00;102080.97;10198180;28;20062;-74
2022/02/12 20:53:47;;;;;;;11.20;2.75;;;;;;;1.91;100.00;102077.22;10183160;28;20415;-73
2022/02/12 20:58:43;;;;;;;11.18;3.28;;;;;;;1.86;100.00;102065.25;10191972;28;20099;-73
2022/02/12 21:03:42;;;;;;;10.30;3.47;;;;;;;1.86;100.00;102053.63;10176635;28;20459;-73
2022/02/12 21:08:39;;;;;;;10.57;3.05;;;;;;;1.77;100.00;102038.81;10184384;28;20491;-73
2022/02/12 21:13:36;;;;;;;6.28;2.80;;;;;;;1.62;100.00;102036.47;10185710;28;20049;-73
2022/02/12 21:18:34;;;;;;;8.90;2.78;;;;;;;1.60;100.00;102030.50;10192951;28;20145;-73
2022/02/12 21:23:33;;;;;;;8.95;2.80;;;;;;;1.44;100.00;102024.66;10197538;28;20054;-73
2022/02/12 21:28:30;;;;;;;7.82;2.72;;;;;;;1.56;100.00;102021.22;10190252;28;20084;-74
2022/02/12 21:33:26;;;;;;;10.15;2.88;;;;;;;1.58;100.00;102019.09;10191456;28;20050;-74
2022/02/12 21:38:23;;;;;;;9.48;2.55;;;;;;;1.55;100.00;102003.41;10183909;28;20279;-73
2022/02/12 21:43:20;;;;;;;7.45;2.65;;;;;;;1.55;100.00;101988.03;10196396;28;20062;-74
2022/02/12 21:48:16;;;;;;;7.35;2.47;;;;;;;1.54;100.00;101985.59;10190672;28;20073;-73
2022/02/12 21:53:13;;;;;;;9.95;2.67;;;;;;;1.48;100.00;101973.81;10183097;28;20042;-74
2022/02/12 21:58:11;;;;;;;8.70;2.47;;;;;;;1.44;100.00;101976.16;10182139;28;20054;-73
2022/02/12 22:03:08;;;;;;;11.27;2.90;;;;;;;1.35;100.00;101966.72;10180916;28;20038;-74
2022/02/12 22:08:04;;;;;;;8.48;2.58;;;;;;;1.35;100.00;101961.34;10179072;28;20116;-74
2022/02/12 22:13:01;;;;;;;10.02;2.63;;;;;;;1.32;100.00;101961.78;10183756;28;20099;-74
2022/02/12 22:17:58;;;;;;;8.25;2.70;;;;;;;1.41;100.00;101952.34;10191166;28;20077;-74
2022/02/12 22:22:54;;;;;;;6.70;2.60;;;;;;;1.31;100.00;101943.97;10194706;28;20120;-74
2022/02/12 22:27:51;;;;;;;8.85;2.45;;;;;;;1.34;100.00;101943.50;10194258;28;20136;-73
2022/02/12 22:32:47;;;;;;;9.98;2.42;;;;;;;1.28;100.00;101944.44;10181908;28;20050;-73
2022/02/12 22:37:44;;;;;;;10.57;3.88;;;;;;;1.11;100.00;101922.63;10177413;28;20081;-74
2022/02/12 22:42:40;;;;;;;6.15;2.10;;;;;;;1.22;100.00;101919.19;10195191;28;20085;-73